Time;durP1;ratioP1;P1;durP2;ratioP2;P2;SDS_P1;SDS_P2;PMS_P1;PMS_P2;Temp;Humidity;BMP_temperature;BMP_pressure;BME280_temperature;BME280_humidity;BME280_pressure;Samples;Min_cycle;Max_cycle;Signal;HPM_P1;HPM_P2
2022/01/25 00:09:59;;;;;;;52.28;35.72;;;5.20;99.90;;;;;;5049832;28;20073;-89
2022/01/25 00:31:10;;;;;;;56.50;40.53;;;5.10;99.90;;;;;;5049548;28;20057;-89
2022/01/25 00:33:38;;;;;;;50.78;34.90;;;5.20;99.90;;;;;;5032907;28;20052;-88
2022/01/25 00:36:06;;;;;;;52.92;37.33;;;5.10;99.90;;;;;;5049315;28;20055;-89
2022/01/25 00:38:32;;;;;;;49.72;34.42;;;5.10;99.90;;;;;;5033127;28;20517;-89
2022/01/25 00:40:58;;;;;;;49.67;35.90;;;5.10;99.90;;;;;;5033341;28;20072;-89
2022/01/25 00:43:26;;;;;;;50.22;36.63;;;5.10;99.90;;;;;;5032944;28;20041;-89
2022/01/25 00:45:54;;;;;;;54.03;37.22;;;5.10;99.90;;;;;;5049713;28;20048;-89
2022/01/25 00:48:31;;;;;;;51.47;36.72;;;5.10;99.90;;;;;;5033159;28;20532;-89
2022/01/25 00:51:19;;;;;;;53.80;38.53;;;5.10;99.90;;;;;;5049644;28;20455;-89
2022/01/25 00:54:10;;;;;;;52.25;35.00;;;5.10;99.90;;;;;;5032480;28;20033;-89
2022/01/25 00:56:38;;;;;;;51.22;35.22;;;5.10;99.90;;;;;;5032351;28;20052;-89
2022/01/25 00:59:08;;;;;;;58.53;40.60;;;5.10;99.90;;;;;;5049673;28;20120;-88
2022/01/25 01:01:35;;;;;;;55.90;36.70;;;5.00;99.90;;;;;;5049637;28;20247;-89
2022/01/25 01:04:01;;;;;;;52.58;37.58;;;5.00;99.90;;;;;;5034362;28;20088;-89
2022/01/25 01:06:26;;;;;;;54.65;38.78;;;5.00;99.90;;;;;;5013182;28;20037;-88
2022/01/25 01:08:53;;;;;;;57.35;38.10;;;5.10;99.90;;;;;;5012876;28;20107;-89
2022/01/25 01:11:27;;;;;;;57.42;38.65;;;5.00;99.90;;;;;;5028592;28;20049;-89
2022/01/25 01:43:16;;;;;;;53.70;34.38;;;4.90;99.90;;;;;;5033223;28;20124;-90
2022/01/25 01:50:54;;;;;;;55.28;36.53;;;4.80;99.90;;;;;;5032809;28;20049;-89
2022/01/25 01:53:19;;;;;;;55.22;35.65;;;4.90;99.90;;;;;;5032639;28;20171;-90
2022/01/25 01:55:45;;;;;;;51.10;34.42;;;4.90;99.90;;;;;;5032600;28;20144;-90
2022/01/25 01:58:10;;;;;;;56.25;37.47;;;4.80;99.90;;;;;;5016221;28;20041;-89
2022/01/25 02:00:41;;;;;;;51.95;34.33;;;4.90;99.90;;;;;;5032740;28;20048;-89
2022/01/25 02:03:08;;;;;;;54.17;37.70;;;4.80;99.90;;;;;;5015660;28;20048;-89
2022/01/25 02:05:34;;;;;;;53.13;35.63;;;4.80;99.90;;;;;;5032973;28;20045;-90
2022/01/25 02:08:00;;;;;;;57.60;37.50;;;4.90;99.90;;;;;;5033023;28;20045;-90
2022/01/25 02:10:26;;;;;;;59.78;36.67;;;4.90;99.90;;;;;;5016231;28;20103;-90
2022/01/25 02:12:52;;;;;;;53.05;36.33;;;4.80;99.90;;;;;;5032909;28;20045;-90
2022/01/25 02:15:20;;;;;;;58.20;40.10;;;4.80;99.90;;;;;;5032559;28;20120;-89
2022/01/25 02:23:14;;;;;;;55.13;35.15;;;4.80;99.90;;;;;;5032580;28;20451;-90
2022/01/25 02:25:40;;;;;;;55.42;36.20;;;4.70;99.90;;;;;;5016466;28;20107;-90
2022/01/25 02:28:05;;;;;;;54.53;36.03;;;4.70;99.90;;;;;;5033073;28;20412;-90
2022/01/25 02:30:31;;;;;;;51.95;35.17;;;4.70;99.90;;;;;;5032413;28;20041;-90
2022/01/25 02:32:57;;;;;;;51.95;35.38;;;4.70;99.90;;;;;;5032128;28;20095;-90
2022/01/25 02:35:22;;;;;;;53.15;36.03;;;4.80;99.90;;;;;;5032457;28;20040;-89
2022/01/25 02:37:48;;;;;;;52.50;35.17;;;4.80;99.90;;;;;;5032266;28;20049;-90
2022/01/25 02:40:14;;;;;;;55.70;38.28;;;4.70;99.90;;;;;;5032127;28;20120;-90
2022/01/25 02:42:39;;;;;;;58.20;35.08;;;4.70;99.90;;;;;;5032447;28;20318;-90
2022/01/25 02:45:10;;;;;;;55.15;35.30;;;4.70;99.90;;;;;;5032647;28;20506;-90
2022/01/25 02:50:20;;;;;;;58.60;38.03;;;4.70;99.90;;;;;;5031992;28;20042;-90
2022/01/25 02:52:45;;;;;;;58.05;37.53;;;4.70;99.90;;;;;;5031162;28;20037;-90
2022/01/25 02:55:11;;;;;;;57.60;36.97;;;4.70;99.90;;;;;;5015668;28;20114;-90
2022/01/25 02:57:36;;;;;;;55.28;35.28;;;4.60;99.90;;;;;;5031997;28;20081;-90
2022/01/25 03:00:07;;;;;;;54.03;35.63;;;4.60;99.90;;;;;;5031891;28;20034;-89
2022/01/25 03:02:34;;;;;;;56.15;35.33;;;4.60;99.90;;;;;;5014312;28;20041;-89
2022/01/25 03:05:00;;;;;;;56.28;35.83;;;4.60;99.90;;;;;;5032281;28;20033;-89
2022/01/25 03:07:25;;;;;;;55.38;36.53;;;4.60;99.90;;;;;;5031900;28;20049;-90
2022/01/25 03:09:55;;;;;;;58.65;35.80;;;4.60;99.90;;;;;;5015341;28;20036;-89
2022/01/25 03:12:32;;;;;;;53.20;34.75;;;4.70;99.90;;;;;;5014651;28;20044;-90
2022/01/25 03:15:12;;;;;;;54.67;33.95;;;4.70;99.90;;;;;;5031340;28;20076;-90
2022/01/25 03:17:45;;;;;;;55.47;34.30;;;4.60;99.90;;;;;;5031334;28;20056;-90
2022/01/25 03:20:19;;;;;;;58.15;34.83;;;4.60;99.90;;;;;;5031088;28;20079;-90
2022/01/25 03:25:10;;;;;;;58.95;35.95;;;4.60;99.90;;;;;;5031479;28;20068;-91
2022/01/25 03:27:36;;;;;;;59.17;36.67;;;4.60;99.90;;;;;;5015089;28;20541;-90
2022/01/25 03:30:02;;;;;;;58.38;37.50;;;4.50;99.90;;;;;;5014653;28;20046;-90
2022/01/25 03:32:28;;;;;;;53.33;35.15;;;4.50;99.90;;;;;;5014078;28;20083;-89
2022/01/25 03:34:53;;;;;;;56.28;35.55;;;4.50;99.90;;;;;;5030765;28;20052;-89
2022/01/25 03:37:19;;;;;;;59.03;38.35;;;4.50;99.90;;;;;;5034231;28;20095;-90
2022/01/25 03:39:44;;;;;;;54.80;34.33;;;4.50;99.90;;;;;;5031223;28;20041;-90
2022/01/25 03:42:11;;;;;;;57.80;36.80;;;4.50;99.90;;;;;;5014143;28;20034;-90
2022/01/25 03:44:39;;;;;;;58.40;35.65;;;4.60;99.90;;;;;;5031228;28;20049;-89
2022/01/25 03:47:10;;;;;;;58.00;35.45;;;4.60;99.90;;;;;;5014147;28;20077;-90
2022/01/25 03:49:52;;;;;;;54.30;35.58;;;4.60;99.90;;;;;;5014615;28;20096;-90
2022/01/25 03:52:32;;;;;;;56.38;34.65;;;4.60;99.90;;;;;;5030305;28;20041;-89
2022/01/25 03:54:58;;;;;;;55.05;34.88;;;4.60;99.90;;;;;;5014012;28;20033;-90
2022/01/25 03:57:25;;;;;;;56.05;37.95;;;4.60;99.90;;;;;;5030640;28;20115;-89
2022/01/25 03:59:51;;;;;;;51.85;32.90;;;4.60;99.90;;;;;;5014168;28;20120;-89
2022/01/25 04:02:17;;;;;;;57.20;35.40;;;4.60;99.90;;;;;;5030200;28;20378;-89
2022/01/25 04:04:45;;;;;;;53.42;33.55;;;4.60;99.90;;;;;;5034232;28;20032;-89
2022/01/25 04:07:12;;;;;;;53.95;34.53;;;4.70;99.90;;;;;;5033798;28;20086;-89
2022/01/25 04:09:39;;;;;;;55.72;34.40;;;4.60;99.90;;;;;;5033573;28;20079;-89
2022/01/25 04:12:06;;;;;;;53.60;33.58;;;4.60;99.90;;;;;;5049965;28;20056;-89
2022/01/25 04:14:32;;;;;;;54.85;35.38;;;4.70;99.90;;;;;;5050062;28;20403;-89
2022/01/25 04:19:40;;;;;;;56.03;35.97;;;4.70;99.90;;;;;;5050463;28;20045;-90
2022/01/25 04:27:24;;;;;;;56.83;35.08;;;4.70;99.90;;;;;;5050291;28;20049;-90
2022/01/25 04:29:51;;;;;;;54.75;34.20;;;4.70;99.90;;;;;;5033724;28;20120;-90
2022/01/25 04:32:17;;;;;;;54.47;34.38;;;4.70;99.90;;;;;;5032745;28;20048;-90
2022/01/25 04:34:57;;;;;;;55.47;34.20;;;4.60;99.90;;;;;;5049893;28;20060;-90
2022/01/25 04:51:20;;;;;;;58.78;35.80;;;4.50;99.90;;;;;;5050091;28;20049;-90
2022/01/25 04:53:55;;;;;;;56.67;35.55;;;4.50;99.90;;;;;;5049851;28;20461;-89
2022/01/25 04:56:29;;;;;;;53.83;33.35;;;4.50;99.90;;;;;;5049889;28;20049;-89
2022/01/25 04:59:10;;;;;;;57.00;33.70;;;4.50;99.90;;;;;;5032206;28;20120;-90
2022/01/25 05:01:37;;;;;;;57.10;36.67;;;4.50;99.90;;;;;;5029705;28;20550;-90
2022/01/25 05:04:08;;;;;;;54.85;33.42;;;4.50;99.90;;;;;;5029705;28;20042;-90
2022/01/25 05:06:33;;;;;;;56.78;35.10;;;4.50;99.90;;;;;;5030139;28;20042;-90
2022/01/25 05:09:13;;;;;;;51.92;33.13;;;4.50;99.90;;;;;;5029787;28;20037;-89
2022/01/25 05:11:42;;;;;;;56.53;32.97;;;4.50;99.90;;;;;;5029256;28;20041;-89
2022/01/25 05:14:21;;;;;;;55.88;33.00;;;4.50;99.90;;;;;;5013944;28;20065;-89
2022/01/25 05:16:50;;;;;;;55.10;34.05;;;4.50;99.90;;;;;;5033512;28;20122;-89
2022/01/25 05:22:07;;;;;;;60.78;37.33;;;4.50;99.90;;;;;;5033003;28;20549;-91
2022/01/25 05:24:39;;;;;;;57.42;35.15;;;4.50;99.90;;;;;;5017098;28;20048;-90
2022/01/25 05:27:06;;;;;;;55.20;33.45;;;4.50;99.90;;;;;;5033896;28;20438;-90
2022/01/25 05:29:32;;;;;;;58.92;34.47;;;4.50;99.90;;;;;;5017369;28;20119;-90
2022/01/25 05:31:58;;;;;;;56.08;35.65;;;4.50;99.90;;;;;;5033373;28;20455;-90
2022/01/25 05:34:24;;;;;;;59.30;35.90;;;4.50;99.90;;;;;;5033750;28;20037;-89
2022/01/25 05:36:49;;;;;;;57.60;35.08;;;4.50;99.90;;;;;;5033242;28;20412;-89
2022/01/25 05:39:20;;;;;;;59.30;34.40;;;4.40;99.90;;;;;;5016882;28;20072;-89
2022/01/25 05:41:54;;;;;;;59.33;36.95;;;4.40;99.90;;;;;;5032629;28;20099;-90
2022/01/25 05:46:53;;;;;;;61.50;35.22;;;4.50;99.90;;;;;;5033248;28;20045;-90
2022/01/25 05:49:19;;;;;;;55.22;34.03;;;4.50;99.90;;;;;;5033538;28;20042;-90
2022/01/25 05:51:45;;;;;;;60.25;36.30;;;4.50;99.90;;;;;;5033277;28;20283;-90
2022/01/25 05:54:12;;;;;;;57.22;34.97;;;4.50;99.90;;;;;;5016935;28;20487;-90
2022/01/25 05:56:37;;;;;;;57.90;35.47;;;4.50;99.90;;;;;;5032760;28;20041;-89
2022/01/25 05:59:03;;;;;;;59.90;35.80;;;4.50;99.90;;;;;;5016260;28;20099;-89
2022/01/25 06:01:29;;;;;;;60.53;35.45;;;4.40;99.90;;;;;;5032797;28;20037;-90
2022/01/25 06:03:55;;;;;;;59.08;37.92;;;4.50;99.90;;;;;;5032628;28;20041;-89
2022/01/25 06:06:20;;;;;;;55.72;35.88;;;4.50;99.90;;;;;;5033536;28;20115;-90
2022/01/25 06:08:46;;;;;;;59.05;37.45;;;4.50;99.90;;;;;;5033027;28;20511;-90
2022/01/25 06:11:12;;;;;;;59.17;35.75;;;4.50;99.90;;;;;;5032961;28;20045;-90
2022/01/25 06:13:37;;;;;;;59.95;34.63;;;4.50;99.90;;;;;;5016077;28;20045;-89
2022/01/25 06:16:03;;;;;;;59.58;37.95;;;4.40;99.90;;;;;;5032615;28;20041;-90
2022/01/25 06:18:29;;;;;;;60.88;39.03;;;4.40;99.90;;;;;;5033034;28;20092;-90
2022/01/25 06:20:55;;;;;;;57.28;36.10;;;4.40;99.90;;;;;;5032661;28;20044;-89
2022/01/25 06:23:20;;;;;;;57.95;37.70;;;4.40;99.90;;;;;;5032438;28;20125;-89
2022/01/25 06:25:46;;;;;;;57.15;32.33;;;4.50;99.90;;;;;;5031731;28;20507;-89
2022/01/25 06:28:13;;;;;;;55.33;33.30;;;4.50;99.90;;;;;;5016142;28;20060;-89
2022/01/25 06:30:39;;;;;;;56.08;34.55;;;4.50;99.90;;;;;;5032555;28;20045;-88
2022/01/25 06:33:07;;;;;;;60.20;35.33;;;4.50;99.90;;;;;;5032103;28;20041;-89
2022/01/25 06:35:34;;;;;;;57.20;34.90;;;4.50;99.90;;;;;;5032290;28;20073;-90
2022/01/25 06:37:59;;;;;;;57.53;36.42;;;4.60;99.90;;;;;;5032550;28;20509;-89
2022/01/25 06:40:26;;;;;;;60.33;36.28;;;4.50;99.90;;;;;;5034057;28;20041;-90
2022/01/25 06:42:51;;;;;;;60.05;36.28;;;4.60;99.90;;;;;;5041144;28;20117;-90
2022/01/25 06:45:20;;;;;;;56.72;34.33;;;4.50;99.90;;;;;;5038577;28;20116;-90
2022/01/25 06:47:47;;;;;;;58.13;34.45;;;4.50;99.90;;;;;;5031799;28;20041;-90
2022/01/25 06:50:15;;;;;;;57.47;35.83;;;4.50;99.90;;;;;;5015813;28;20417;-90
2022/01/25 06:52:42;;;;;;;58.45;35.83;;;4.50;99.90;;;;;;5031315;28;20048;-89
2022/01/25 06:55:11;;;;;;;56.25;34.78;;;4.40;99.90;;;;;;5031753;28;20045;-89
2022/01/25 06:57:36;;;;;;;58.55;36.30;;;4.50;99.90;;;;;;5015178;28;20037;-89
2022/01/25 07:00:07;;;;;;;59.53;35.15;;;4.50;99.90;;;;;;5031761;28;20091;-90
2022/01/25 07:02:33;;;;;;;58.63;35.60;;;4.50;99.90;;;;;;5013158;28;20640;-90
2022/01/25 07:04:59;;;;;;;58.92;35.28;;;4.50;99.90;;;;;;5031948;28;20487;-90
2022/01/25 07:07:25;;;;;;;57.15;35.28;;;4.50;99.90;;;;;;5031909;28;20029;-90
2022/01/25 07:09:50;;;;;;;59.47;36.20;;;4.50;99.90;;;;;;5030941;28;20515;-89
2022/01/25 07:12:16;;;;;;;58.50;35.95;;;4.50;99.90;;;;;;5032101;28;20037;-89
2022/01/25 07:14:42;;;;;;;55.90;32.35;;;4.50;99.90;;;;;;5051030;28;20409;-89
2022/01/25 07:17:07;;;;;;;61.13;35.35;;;4.50;99.90;;;;;;5051770;28;20036;-89
2022/01/25 07:19:33;;;;;;;62.72;37.70;;;4.50;99.90;;;;;;5050769;28;20045;-89
2022/01/25 07:21:58;;;;;;;59.30;36.90;;;4.50;99.90;;;;;;5034125;28;20406;-90
2022/01/25 07:24:24;;;;;;;57.40;34.13;;;4.60;99.90;;;;;;5050996;28;20036;-90
2022/01/25 07:26:50;;;;;;;61.42;35.90;;;4.60;99.90;;;;;;5051206;28;20041;-89
2022/01/25 07:29:16;;;;;;;59.08;35.28;;;4.60;99.90;;;;;;5029833;28;20249;-90
2022/01/25 07:31:42;;;;;;;57.28;35.78;;;4.50;99.90;;;;;;5014100;28;20041;-90
2022/01/25 07:34:07;;;;;;;60.97;37.28;;;4.50;99.90;;;;;;5030282;28;20042;-90
2022/01/25 07:36:34;;;;;;;57.55;33.92;;;4.50;99.90;;;;;;5014094;28;20477;-91
2022/01/25 07:39:00;;;;;;;60.33;36.17;;;4.50;99.90;;;;;;5013457;28;20606;-90
2022/01/25 07:41:26;;;;;;;62.55;35.95;;;4.50;99.90;;;;;;5030015;28;20265;-91
2022/01/25 07:43:51;;;;;;;54.10;33.28;;;4.50;99.90;;;;;;5013628;28;20037;-90
2022/01/25 07:46:17;;;;;;;59.67;35.58;;;4.50;99.90;;;;;;5030455;28;20076;-90
2022/01/25 07:48:42;;;;;;;60.97;34.63;;;4.50;99.90;;;;;;5013686;28;20041;-89
2022/01/25 07:51:08;;;;;;;56.67;35.72;;;4.50;99.90;;;;;;5014492;28;20037;-90
2022/01/25 07:53:34;;;;;;;53.95;33.72;;;4.50;99.90;;;;;;5013465;28;20689;-90
2022/01/25 07:55:59;;;;;;;55.97;32.45;;;4.50;99.90;;;;;;5030152;28;20095;-89
2022/01/25 07:58:25;;;;;;;57.65;35.38;;;4.50;99.90;;;;;;5030582;28;20042;-90
2022/01/25 08:00:51;;;;;;;57.30;35.03;;;4.50;99.90;;;;;;5030045;28;20038;-90
2022/01/25 08:03:18;;;;;;;59.90;36.45;;;4.60;99.90;;;;;;5013204;28;20038;-90
2022/01/25 08:05:45;;;;;;;55.40;33.05;;;4.50;99.90;;;;;;5013886;28;20168;-90
2022/01/25 08:08:11;;;;;;;58.60;34.17;;;4.50;99.90;;;;;;5030112;28;20076;-90
2022/01/25 08:10:37;;;;;;;57.67;33.85;;;4.50;99.90;;;;;;5030119;28;20037;-90
2022/01/25 08:13:03;;;;;;;59.28;35.03;;;4.50;99.90;;;;;;5013273;28;20098;-90
2022/01/25 08:15:29;;;;;;;59.20;35.08;;;4.50;99.90;;;;;;5013912;28;20510;-89
2022/01/25 08:17:54;;;;;;;63.60;37.25;;;4.50;99.90;;;;;;5031019;28;20033;-89
2022/01/25 08:20:20;;;;;;;59.20;34.38;;;4.50;99.90;;;;;;5029873;28;20041;-89
2022/01/25 08:22:46;;;;;;;62.70;37.30;;;4.50;99.90;;;;;;5029020;28;20033;-89
2022/01/25 08:25:12;;;;;;;60.58;34.65;;;4.50;99.90;;;;;;5029053;28;20120;-89
2022/01/25 08:27:37;;;;;;;60.28;35.13;;;4.60;99.90;;;;;;5029563;28;20029;-90
2022/01/25 08:30:04;;;;;;;60.60;34.08;;;4.60;99.90;;;;;;5013486;28;20041;-89
2022/01/25 08:32:30;;;;;;;55.55;33.47;;;4.60;99.90;;;;;;5029412;28;20041;-89
2022/01/25 08:34:57;;;;;;;55.92;32.83;;;4.60;99.90;;;;;;5030231;28;20041;-90
2022/01/25 08:37:22;;;;;;;58.33;35.20;;;4.60;99.90;;;;;;5030210;28;20041;-90
2022/01/25 08:39:48;;;;;;;56.78;34.83;;;4.60;99.90;;;;;;5013301;28;20034;-90
2022/01/25 08:42:13;;;;;;;55.95;33.40;;;4.60;99.90;;;;;;5013524;28;20037;-90
2022/01/25 08:44:39;;;;;;;57.67;33.05;;;4.60;99.90;;;;;;5030024;28;20037;-90
2022/01/25 08:47:06;;;;;;;60.30;34.53;;;4.60;99.90;;;;;;5029816;28;20132;-90
2022/01/25 08:49:32;;;;;;;55.15;33.70;;;4.60;99.90;;;;;;5029133;28;20450;-90
2022/01/25 08:51:58;;;;;;;56.85;33.13;;;4.50;99.90;;;;;;5029047;28;20066;-90
2022/01/25 08:54:25;;;;;;;57.10;33.30;;;4.60;99.90;;;;;;5029505;28;20091;-91
2022/01/25 08:56:52;;;;;;;58.47;32.38;;;4.60;99.90;;;;;;5013365;28;20048;-90
2022/01/25 08:59:18;;;;;;;54.53;32.70;;;4.60;99.90;;;;;;5011483;28;20042;-91
2022/01/25 09:01:43;;;;;;;60.00;32.70;;;4.60;99.90;;;;;;5029469;28;20052;-90
2022/01/25 09:04:09;;;;;;;61.30;34.47;;;4.50;99.90;;;;;;5012790;28;20392;-90
2022/01/25 09:06:35;;;;;;;57.13;32.72;;;4.50;99.90;;;;;;5029604;28;20491;-89
2022/01/25 09:09:05;;;;;;;59.30;34.83;;;4.50;99.90;;;;;;5012591;28;20099;-89
2022/01/25 09:11:31;;;;;;;54.15;32.05;;;4.50;99.90;;;;;;5029595;28;20037;-89
2022/01/25 09:13:58;;;;;;;56.35;33.53;;;4.50;99.90;;;;;;5029057;28;20038;-89
2022/01/25 09:16:23;;;;;;;57.67;33.70;;;4.60;99.90;;;;;;5029712;28;20049;-90
2022/01/25 09:18:49;;;;;;;56.80;33.88;;;4.60;99.90;;;;;;5029753;28;20045;-90
2022/01/25 09:21:15;;;;;;;59.50;34.00;;;4.60;99.90;;;;;;5029337;28;20487;-90
2022/01/25 09:23:40;;;;;;;58.65;35.30;;;4.60;99.90;;;;;;5028374;28;20037;-90
2022/01/25 09:26:06;;;;;;;59.88;33.88;;;4.60;99.90;;;;;;5029829;28;20049;-89
2022/01/25 09:28:32;;;;;;;57.17;33.30;;;4.60;99.90;;;;;;5028697;28;20499;-89
2022/01/25 09:30:58;;;;;;;55.65;31.85;;;4.60;99.90;;;;;;5013068;28;20068;-90
2022/01/25 09:33:25;;;;;;;61.15;33.03;;;4.60;99.90;;;;;;5029056;28;20115;-90
2022/01/25 09:35:52;;;;;;;58.10;33.10;;;4.60;99.90;;;;;;5029793;28;20124;-90
2022/01/25 09:38:19;;;;;;;60.60;34.08;;;4.70;99.90;;;;;;5029263;28;20044;-90
2022/01/25 09:40:45;;;;;;;62.55;34.08;;;4.60;99.90;;;;;;5028615;28;20034;-90
2022/01/25 09:43:11;;;;;;;56.58;33.65;;;4.70;99.90;;;;;;5027478;28;20080;-90
2022/01/25 09:45:38;;;;;;;58.72;33.20;;;4.60;99.90;;;;;;5011280;28;20077;-90
2022/01/25 09:48:05;;;;;;;60.30;34.63;;;4.70;99.90;;;;;;5034015;28;20052;-90
2022/01/25 09:50:31;;;;;;;58.47;35.85;;;4.70;99.90;;;;;;5022668;28;20057;-89
2022/01/25 09:53:00;;;;;;;57.35;35.30;;;4.70;99.90;;;;;;5040570;28;20045;-91
2022/01/25 09:55:29;;;;;;;58.38;32.88;;;4.70;99.90;;;;;;5021205;28;20052;-90
2022/01/25 09:57:55;;;;;;;64.90;35.55;;;4.70;99.90;;;;;;5030149;28;20431;-90
2022/01/25 10:00:24;;;;;;;62.80;33.90;;;4.70;99.90;;;;;;5020051;28;20523;-90
2022/01/25 10:03:05;;;;;;;58.15;35.72;;;4.70;99.90;;;;;;5014870;28;20033;-89
2022/01/25 10:05:35;;;;;;;62.33;33.22;;;4.80;99.90;;;;;;5035212;28;20033;-90
2022/01/25 10:08:14;;;;;;;61.50;33.78;;;4.70;99.90;;;;;;5044280;28;20048;-89
2022/01/25 10:10:59;;;;;;;56.13;32.85;;;4.80;99.90;;;;;;5042649;28;20052;-89
2022/01/25 10:13:30;;;;;;;60.70;33.25;;;4.80;99.90;;;;;;5028024;28;20098;-90
2022/01/25 10:16:06;;;;;;;60.28;34.67;;;4.70;99.90;;;;;;5030124;28;20040;-89
2022/01/25 10:18:53;;;;;;;57.03;32.20;;;4.80;99.90;;;;;;5052123;28;20557;-89
2022/01/25 10:21:27;;;;;;;58.55;34.47;;;4.80;99.90;;;;;;5052099;28;20037;-89
2022/01/25 10:24:14;;;;;;;54.53;32.33;;;4.80;99.90;;;;;;5038248;28;20079;-89
2022/01/25 10:26:49;;;;;;;58.60;33.38;;;4.80;99.90;;;;;;5037792;28;20127;-90
2022/01/25 10:29:17;;;;;;;53.08;31.30;;;4.80;99.90;;;;;;5018191;28;20056;-90
2022/01/25 10:31:46;;;;;;;57.25;32.15;;;4.80;99.90;;;;;;5032049;28;20073;-90
2022/01/25 10:34:15;;;;;;;55.05;32.90;;;4.80;99.90;;;;;;5015797;28;20037;-90
2022/01/25 10:36:45;;;;;;;57.78;31.13;;;4.80;99.90;;;;;;5031879;28;20042;-90
2022/01/25 10:39:12;;;;;;;52.70;31.75;;;4.80;99.90;;;;;;5015499;28;20041;-91
2022/01/25 10:41:39;;;;;;;58.30;33.33;;;4.80;99.90;;;;;;5030981;28;20491;-90
2022/01/25 10:44:06;;;;;;;60.92;34.20;;;4.80;99.90;;;;;;5031031;28;20044;-90
2022/01/25 10:46:32;;;;;;;57.75;32.30;;;4.90;99.90;;;;;;5015824;28;20049;-91
2022/01/25 10:49:10;;;;;;;61.92;34.15;;;4.90;99.90;;;;;;5031100;28;20495;-90
2022/01/25 10:51:42;;;;;;;59.40;31.60;;;4.90;99.90;;;;;;5015178;28;20045;-90
2022/01/25 10:54:23;;;;;;;57.45;31.85;;;4.80;99.90;;;;;;5015027;28;20080;-91
2022/01/25 10:56:54;;;;;;;60.03;32.58;;;4.80;99.90;;;;;;5040715;28;20108;-91
2022/01/25 10:59:39;;;;;;;58.92;34.67;;;4.90;99.90;;;;;;5034738;28;20037;-90
2022/01/25 11:02:06;;;;;;;59.25;33.33;;;4.90;99.90;;;;;;5029694;28;20045;-91
2022/01/25 11:04:38;;;;;;;56.50;33.35;;;4.90;99.90;;;;;;5030509;28;20030;-90
2022/01/25 11:07:06;;;;;;;55.10;31.65;;;4.90;99.90;;;;;;5031161;28;20041;-91
2022/01/25 11:09:46;;;;;;;57.28;32.58;;;4.90;99.90;;;;;;5039825;28;20067;-90
2022/01/25 11:12:15;;;;;;;53.60;30.83;;;4.90;99.90;;;;;;5034593;28;20127;-90
2022/01/25 11:14:56;;;;;;;59.00;33.38;;;4.90;99.90;;;;;;5051497;28;20045;-91
2022/01/25 11:17:28;;;;;;;56.03;32.25;;;4.90;99.90;;;;;;5051862;28;20470;-91
2022/01/25 11:19:55;;;;;;;59.55;32.67;;;4.90;99.90;;;;;;5050915;28;20029;-91
2022/01/25 11:22:22;;;;;;;58.63;33.88;;;4.90;99.90;;;;;;5034617;28;20503;-91
2022/01/25 11:24:54;;;;;;;57.95;33.78;;;5.00;99.90;;;;;;5051749;28;20037;-91
2022/01/25 11:27:21;;;;;;;58.78;30.38;;;4.90;99.90;;;;;;5035134;28;20491;-90
2022/01/25 11:29:50;;;;;;;58.65;31.98;;;5.00;99.90;;;;;;5033421;28;20125;-91
2022/01/25 11:32:20;;;;;;;58.63;33.53;;;5.00;99.90;;;;;;5031788;28;20132;-91
2022/01/25 11:34:48;;;;;;;58.92;32.55;;;5.00;99.90;;;;;;5050502;28;20044;-91
2022/01/25 11:37:14;;;;;;;59.90;32.45;;;5.00;99.90;;;;;;5050518;28;20099;-90
2022/01/25 11:39:44;;;;;;;56.45;31.58;;;5.00;99.90;;;;;;5050543;28;20049;-91
2022/01/25 11:42:11;;;;;;;60.85;33.65;;;4.90;99.90;;;;;;5041714;28;20093;-90
2022/01/25 11:44:56;;;;;;;59.05;34.33;;;4.90;99.90;;;;;;5028239;28;20036;-90
2022/01/25 11:47:31;;;;;;;59.33;34.42;;;4.90;99.90;;;;;;5050545;28;20128;-90
2022/01/25 11:50:08;;;;;;;62.47;32.72;;;4.90;99.90;;;;;;5050271;28;20076;-90
2022/01/25 11:52:34;;;;;;;62.33;33.55;;;4.90;99.90;;;;;;5049328;28;20045;-91
2022/01/25 11:55:24;;;;;;;60.38;32.78;;;4.90;99.90;;;;;;5051275;28;20044;-90
2022/01/25 11:58:01;;;;;;;60.50;34.83;;;4.90;99.90;;;;;;5033160;28;20109;-91
2022/01/25 12:00:47;;;;;;;56.38;31.33;;;4.90;99.90;;;;;;5022853;28;20041;-90
2022/01/25 12:03:35;;;;;;;57.47;32.95;;;4.90;99.90;;;;;;5033476;28;20083;-91
2022/01/25 12:06:18;;;;;;;58.90;33.20;;;4.90;99.90;;;;;;5034546;28;20074;-91
2022/01/25 12:11:30;;;;;;;61.65;31.00;;;4.90;99.90;;;;;;5051016;28;20110;-91
2022/01/25 12:14:31;;;;;;;57.50;30.65;;;4.90;99.90;;;;;;5034021;28;20463;-91
2022/01/25 12:17:02;;;;;;;58.08;32.00;;;4.90;99.90;;;;;;5019128;28;20136;-90
2022/01/25 12:19:46;;;;;;;57.35;31.77;;;4.80;99.90;;;;;;5033877;28;20086;-91
2022/01/25 12:22:35;;;;;;;57.88;31.55;;;4.90;99.90;;;;;;5049770;28;20116;-91
2022/01/25 12:25:23;;;;;;;61.47;31.48;;;4.90;99.90;;;;;;5032792;28;20041;-91
2022/01/25 12:28:03;;;;;;;63.22;34.05;;;4.90;99.90;;;;;;5033930;28;20033;-90
2022/01/25 12:30:44;;;;;;;61.38;32.72;;;4.90;99.90;;;;;;5033811;28;20055;-91
2022/01/25 12:33:29;;;;;;;63.47;32.15;;;4.90;99.90;;;;;;5033327;28;20045;-91
2022/01/25 12:36:00;;;;;;;59.13;31.70;;;4.90;99.90;;;;;;5033592;28;20365;-91
2022/01/25 12:38:38;;;;;;;59.13;31.88;;;4.90;99.90;;;;;;5050171;28;20040;-91
2022/01/25 12:41:13;;;;;;;62.38;34.10;;;4.90;99.90;;;;;;5049939;28;20125;-91
2022/01/25 12:43:40;;;;;;;59.40;33.80;;;4.90;99.90;;;;;;5033819;28;20548;-91
2022/01/25 12:46:15;;;;;;;62.97;33.55;;;4.90;99.90;;;;;;5014103;28;20395;-91
2022/01/25 12:48:47;;;;;;;69.20;36.40;;;4.90;99.90;;;;;;5016941;28;20526;-90
2022/01/25 12:51:19;;;;;;;58.53;33.03;;;4.90;99.90;;;;;;5023240;28;20090;-91
2022/01/25 12:53:48;;;;;;;62.00;31.60;;;4.90;99.90;;;;;;5021930;28;20044;-91
2022/01/25 12:56:19;;;;;;;58.60;32.75;;;4.90;99.90;;;;;;5039257;28;20131;-90
2022/01/25 12:58:47;;;;;;;58.63;32.70;;;4.90;99.90;;;;;;5024687;28;20041;-93
2022/01/25 13:01:16;;;;;;;67.30;33.78;;;4.90;99.90;;;;;;5039199;28;20092;-93
2022/01/25 13:03:48;;;;;;;64.05;34.92;;;4.90;99.90;;;;;;5022754;28;20126;-92
2022/01/25 13:06:24;;;;;;;65.25;34.55;;;4.90;99.90;;;;;;5024771;28;20507;-92
2022/01/25 13:09:25;;;;;;;59.03;32.55;;;4.90;99.90;;;;;;5022187;28;20025;-92
2022/01/25 13:14:44;;;;;;;61.85;33.30;;;4.90;99.90;;;;;;5030461;28;20049;-92
2022/01/25 13:17:22;;;;;;;61.45;34.17;;;4.90;99.90;;;;;;5030300;28;20041;-93
2022/01/25 13:19:54;;;;;;;57.35;31.52;;;4.90;99.90;;;;;;5029734;28;20087;-92
2022/01/25 13:22:32;;;;;;;63.00;33.70;;;4.90;99.90;;;;;;5029061;28;20041;-93
2022/01/25 13:27:46;;;;;;;63.25;33.00;;;4.90;99.90;;;;;;5030376;28;20041;-92
2022/01/25 13:32:57;;;;;;;61.95;31.85;;;4.90;99.90;;;;;;5029789;28;20135;-91
2022/01/25 13:35:33;;;;;;;62.53;33.28;;;4.90;99.90;;;;;;5013992;28;20044;-91
2022/01/25 13:38:04;;;;;;;58.92;31.02;;;4.90;99.90;;;;;;5033872;28;20081;-91
2022/01/25 13:46:26;;;;;;;56.60;28.60;;;4.90;99.90;;;;;;5033841;28;20049;-92
2022/01/25 13:48:54;;;;;;;59.78;30.75;;;4.90;99.90;;;;;;5033812;28;20045;-91
2022/01/25 13:51:23;;;;;;;58.88;30.05;;;4.90;99.90;;;;;;5033561;28;20045;-93
2022/01/25 13:53:52;;;;;;;59.17;33.22;;;4.90;99.90;;;;;;5033010;28;20099;-93
2022/01/25 13:56:19;;;;;;;59.28;31.02;;;4.90;99.90;;;;;;5033245;28;20431;-92
2022/01/25 13:58:48;;;;;;;53.10;30.65;;;4.80;99.90;;;;;;5017370;28;20124;-93
2022/01/25 14:01:15;;;;;;;57.92;31.65;;;4.90;99.90;;;;;;5030766;28;20502;-92
2022/01/25 14:03:51;;;;;;;56.13;29.05;;;4.80;99.90;;;;;;5052965;28;20052;-93
2022/01/25 14:06:28;;;;;;;55.38;30.17;;;4.80;99.90;;;;;;5037335;28;20548;-92
2022/01/25 14:09:03;;;;;;;59.20;31.67;;;4.80;99.90;;;;;;5036992;28;20041;-92
2022/01/25 14:25:10;;;;;;;54.13;28.85;;;4.80;99.90;;;;;;5053668;28;20123;-92
2022/01/25 14:27:49;;;;;;;58.70;30.50;;;4.80;99.90;;;;;;5036505;28;20068;-92
2022/01/25 14:30:16;;;;;;;53.72;28.85;;;4.80;99.90;;;;;;5053028;28;20045;-92
2022/01/25 14:32:42;;;;;;;58.55;31.13;;;4.70;99.90;;;;;;5036058;28;20066;-91
2022/01/25 14:35:11;;;;;;;57.13;31.58;;;4.80;99.90;;;;;;5052634;28;20498;-92
2022/01/25 14:37:46;;;;;;;57.55;31.70;;;4.80;99.90;;;;;;5036110;28;20041;-93
2022/01/25 14:40:13;;;;;;;55.28;30.00;;;4.70;99.90;;;;;;5035855;28;20059;-92
2022/01/25 14:42:45;;;;;;;59.15;31.15;;;4.70;99.90;;;;;;5035572;28;20067;-90
2022/01/25 14:45:22;;;;;;;57.50;30.92;;;4.70;99.90;;;;;;5035827;28;20402;-91
2022/01/25 14:47:53;;;;;;;59.70;32.13;;;4.70;99.90;;;;;;5051403;28;20167;-91
2022/01/25 14:50:19;;;;;;;57.00;29.88;;;4.80;99.90;;;;;;5035739;28;20029;-92
2022/01/25 14:53:20;;;;;;;55.05;30.73;;;4.70;99.90;;;;;;5051822;28;20045;-91
2022/01/25 14:55:47;;;;;;;56.45;29.63;;;4.70;99.90;;;;;;4994406;28;20093;-91
2022/01/25 15:00:51;;;;;;;61.47;29.30;;;4.80;99.90;;;;;;4994028;28;20053;-92